Time;durP1;ratioP1;P1;durP2;ratioP2;P2;SDS_P1;SDS_P2;PMS_P1;PMS_P2;Temp;Humidity;BMP_temperature;BMP_pressure;BME280_temperature;BME280_humidity;BME280_pressure;Samples;Min_cycle;Max_cycle;Signal;HPM_P1;HPM_P2
2022/10/31 00:02:13;;;;;;;;;;;;;;;-0.52;66.28;98036.81;5089559;28;19935;-64
2022/10/31 00:04:38;;;;;;;;;;;;;;;-0.51;66.39;98025.81;5089194;28;20399;-63
2022/10/31 00:07:04;;;;;;;;;;;;;;;-0.49;65.81;98034.44;5088352;28;20453;-68
2022/10/31 00:09:30;;;;;;;;;;;;;;;-0.60;65.22;98028.09;5087985;28;19932;-66
2022/10/31 00:11:56;;;;;;;;;;;;;;;-0.65;65.69;98022.66;5088417;28;19963;-66
2022/10/31 00:14:21;;;;;;;;;;;;;;;-0.63;66.49;98025.06;5089129;28;19935;-66
2022/10/31 00:16:49;;;;;;;;;;;;;;;-0.56;66.56;98033.81;5088001;28;20038;-66
2022/10/31 00:19:14;;;;;;;;;;;;;;;-0.55;65.86;98023.84;5087594;28;19928;-66
2022/10/31 00:21:40;;;;;;;;;;;;;;;-0.55;66.21;98010.44;5088229;28;20314;-66
2022/10/31 00:24:06;;;;;;;;;;;;;;;-0.53;65.68;97995.72;5071066;28;19959;-66
2022/10/31 00:26:32;;;;;;;;;;;;;;;-0.48;64.32;98029.88;5086389;28;19934;-64
2022/10/31 00:28:58;;;;;;;;;;;;;;;-0.53;64.72;98019.88;5092078;28;19935;-63
2022/10/31 00:31:24;;;;;;;;;;;;;;;-0.48;65.45;97998.47;5070458;28;19932;-63
2022/10/31 00:33:51;;;;;;;;;;;;;;;-0.43;64.86;98000.41;5089260;28;20061;-67
2022/10/31 00:36:18;;;;;;;;;;;;;;;-0.43;64.40;98001.25;5104647;28;20018;-66
2022/10/31 00:38:44;;;;;;;;;;;;;;;-0.44;64.76;98012.22;5087420;28;19935;-66
2022/10/31 00:41:12;;;;;;;;;;;;;;;-0.49;64.31;98002.22;5107422;28;19928;-66
2022/10/31 00:43:40;;;;;;;;;;;;;;;-0.53;64.69;98003.75;5099268;28;20018;-65
2022/10/31 00:46:06;;;;;;;;;;;;;;;-0.50;65.42;97997.09;5085976;28;19996;-64
2022/10/31 00:48:32;;;;;;;;;;;;;;;-0.45;65.40;97999.84;5053100;28;19990;-66
2022/10/31 00:50:59;;;;;;;;;;;;;;;-0.39;65.24;98039.16;5088275;28;20403;-66
2022/10/31 00:53:26;;;;;;;;;;;;;;;-0.43;63.83;98009.28;5087268;28;19928;-66
2022/10/31 00:55:52;;;;;;;;;;;;;;;-0.44;64.49;97988.03;5088149;28;20460;-66
2022/10/31 00:58:18;;;;;;;;;;;;;;;-0.43;64.46;98003.09;5083149;28;20027;-66
2022/10/31 01:00:46;;;;;;;;;;;;;;;-0.39;64.48;97995.38;5085068;28;19954;-66
2022/10/31 01:03:12;;;;;;;;;;;;;;;-0.34;63.56;97990.06;5083861;28;19928;-66
2022/10/31 01:05:40;;;;;;;;;;;;;;;-0.36;63.51;97992.19;5084430;28;19928;-66
2022/10/31 01:08:08;;;;;;;;;;;;;;;-0.35;63.53;97991.94;5082861;28;19936;-66
2022/10/31 01:10:34;;;;;;;;;;;;;;;-0.27;63.46;97995.25;5070965;28;19932;-66
2022/10/31 01:13:00;;;;;;;;;;;;;;;-0.32;63.79;97988.75;5086240;28;20395;-66
2022/10/31 01:15:26;;;;;;;;;;;;;;;-0.26;64.09;97989.66;5085169;28;19928;-66
2022/10/31 01:17:51;;;;;;;;;;;;;;;-0.23;63.99;97981.09;5086004;28;20018;-65
2022/10/31 01:20:18;;;;;;;;;;;;;;;-0.24;62.74;97995.56;5084761;28;19982;-66
2022/10/31 01:22:43;;;;;;;;;;;;;;;-0.28;62.96;97983.72;5085593;28;19951;-66
2022/10/31 01:25:11;;;;;;;;;;;;;;;-0.25;63.34;97985.91;5086328;28;20399;-63
2022/10/31 01:27:36;;;;;;;;;;;;;;;-0.32;63.64;97993.31;5084563;28;19985;-64
2022/10/31 01:30:02;;;;;;;;;;;;;;;-0.32;64.41;97982.56;5036020;28;1942559;-63
2022/10/31 01:32:29;;;;;;;;;;;;;;;-0.34;64.96;97993.56;5105660;28;20097;-63
2022/10/31 01:34:55;;;;;;;;;;;;;;;-0.32;65.37;97986.06;5106616;28;20419;-63
2022/10/31 01:37:21;;;;;;;;;;;;;;;-0.29;65.61;98001.69;5085866;28;19935;-63
2022/10/31 01:39:48;;;;;;;;;;;;;;;-0.27;66.24;97997.94;5087387;28;19932;-63
2022/10/31 01:42:18;;;;;;;;;;;;;;;-0.28;66.44;97991.78;5066596;28;20089;-63
2022/10/31 01:44:54;;;;;;;;;;;;;;;-0.34;66.73;97995.44;5084923;28;19928;-64
2022/10/31 01:47:31;;;;;;;;;;;;;;;-0.45;67.84;98003.34;5072323;28;19973;-63
2022/10/31 01:49:57;;;;;;;;;;;;;;;-0.50;68.60;98003.28;5106137;28;19935;-64
2022/10/31 01:52:24;;;;;;;;;;;;;;;-0.47;69.18;98002.81;5106268;28;20023;-63
2022/10/31 01:54:52;;;;;;;;;;;;;;;-0.46;69.83;98023.22;5088983;28;20382;-64
2022/10/31 01:57:20;;;;;;;;;;;;;;;-0.71;70.29;97975.31;5107725;28;20093;-66
2022/10/31 01:59:48;;;;;;;;;;;;;;;-0.64;71.33;98008.19;5103177;28;19938;-66
2022/10/31 02:02:15;;;;;;;;;;;;;;;-0.68;72.46;97998.16;5086779;28;19936;-64
2022/10/31 02:04:41;;;;;;;;;;;;;;;-0.79;73.13;98010.63;5105947;28;19934;-67
2022/10/31 02:07:09;;;;;;;;;;;;;;;-0.81;73.49;98010.06;5107261;28;19965;-66
2022/10/31 02:09:36;;;;;;;;;;;;;;;-0.81;73.80;98018.09;5105139;27;20395;-66
2022/10/31 02:12:02;;;;;;;;;;;;;;;-0.81;74.46;98010.84;5105689;28;19928;-66
2022/10/31 02:14:30;;;;;;;;;;;;;;;-0.81;75.31;98018.09;5087613;28;20072;-66
2022/10/31 02:16:56;;;;;;;;;;;;;;;-0.91;75.65;98029.50;5090370;28;19967;-66
2022/10/31 02:19:25;;;;;;;;;;;;;;;-1.00;76.31;98005.72;5087651;28;20468;-66
2022/10/31 02:21:55;;;;;;;;;;;;;;;-1.02;77.03;98015.06;5086693;28;19972;-66
2022/10/31 02:24:34;;;;;;;;;;;;;;;-1.05;77.39;98018.25;5106434;28;19931;-66
2022/10/31 02:27:07;;;;;;;;;;;;;;;-1.10;78.86;98013.59;5105761;28;20018;-66
2022/10/31 02:29:48;;;;;;;;;;;;;;;-1.08;79.22;98008.00;5107018;28;19928;-65
2022/10/31 02:32:20;;;;;;;;;;;;;;;-1.04;79.84;98018.00;5082948;28;19981;-65
2022/10/31 02:34:52;;;;;;;;;;;;;;;-1.06;80.31;98019.31;5084909;28;19932;-66
2022/10/31 02:37:23;;;;;;;;;;;;;;;-1.09;81.25;98020.63;5085895;28;19950;-66
2022/10/31 02:39:53;;;;;;;;;;;;;;;-1.12;81.53;98023.75;5066976;28;19927;-66
2022/10/31 02:42:31;;;;;;;;;;;;;;;-1.20;82.58;98033.03;5086313;28;19935;-66
2022/10/31 02:45:00;;;;;;;;;;;;;;;-1.22;83.67;98013.69;5065615;28;19928;-66
2022/10/31 02:47:29;;;;;;;;;;;;;;;-1.17;83.89;98010.28;5084221;28;19932;-66
2022/10/31 02:49:57;;;;;;;;;;;;;;;-1.11;83.65;98021.91;5090277;28;19935;-66
2022/10/31 02:52:24;;;;;;;;;;;;;;;-1.17;84.80;98016.47;5086496;28;19951;-66
2022/10/31 02:54:50;;;;;;;;;;;;;;;-1.24;85.80;98026.50;5085883;28;20649;-63
2022/10/31 02:57:19;;;;;;;;;;;;;;;-1.34;86.84;98029.00;5082923;28;20045;-63
2022/10/31 02:59:47;;;;;;;;;;;;;;;-1.45;87.72;98033.38;5083215;28;19935;-64
2022/10/31 03:02:24;;;;;;;;;;;;;;;-1.46;88.09;98023.69;5086180;28;19928;-64
2022/10/31 03:05:00;;;;;;;;;;;;;;;-1.45;88.40;98044.09;5083335;28;19928;-63
2022/10/31 03:07:30;;;;;;;;;;;;;;;-1.48;88.61;98034.69;5083234;28;19935;-64
2022/10/31 03:10:03;;;;;;;;;;;;;;;-1.44;88.16;98017.06;5083898;28;19981;-64
2022/10/31 03:12:33;;;;;;;;;;;;;;;-1.35;88.19;98022.84;5067529;28;19928;-64
2022/10/31 03:15:04;;;;;;;;;;;;;;;-1.31;87.08;98025.88;5083037;28;20483;-64
2022/10/31 03:17:33;;;;;;;;;;;;;;;-1.43;87.20;98029.41;5084125;28;20026;-64
2022/10/31 03:20:00;;;;;;;;;;;;;;;-1.46;87.21;98021.03;5085978;28;19963;-64
2022/10/31 03:22:29;;;;;;;;;;;;;;;-1.45;87.69;98031.50;5087398;28;20454;-64
2022/10/31 03:25:01;;;;;;;;;;;;;;;-1.41;87.39;98020.31;5084561;28;19928;-64
2022/10/31 03:27:30;;;;;;;;;;;;;;;-1.36;87.14;98028.44;5082633;28;19928;-64
2022/10/31 03:30:00;;;;;;;;;;;;;;;-1.33;86.02;98044.88;5083358;28;19928;-64
2022/10/31 03:32:33;;;;;;;;;;;;;;;-1.37;85.54;98024.13;5082235;28;19928;-64
2022/10/31 03:35:02;;;;;;;;;;;;;;;-1.32;85.53;98025.03;5083309;28;20018;-64
2022/10/31 03:37:30;;;;;;;;;;;;;;;-1.25;84.69;98029.44;5083327;28;19928;-66
2022/10/31 03:39:58;;;;;;;;;;;;;;;-1.40;84.01;98004.00;5068787;28;19928;-66
2022/10/31 03:42:25;;;;;;;;;;;;;;;-1.20;83.44;98035.69;5068123;28;19975;-66
2022/10/31 03:44:53;;;;;;;;;;;;;;;-1.22;82.82;98013.69;5086775;28;20391;-66
2022/10/31 03:47:19;;;;;;;;;;;;;;;-1.26;83.10;98030.47;5087734;28;20317;-66
2022/10/31 03:49:47;;;;;;;;;;;;;;;-1.25;83.69;98018.69;5094066;28;19981;-66
2022/10/31 03:52:19;;;;;;;;;;;;;;;-1.19;83.64;98028.47;5085249;28;19932;-63
2022/10/31 03:54:45;;;;;;;;;;;;;;;-1.10;83.64;98039.63;5083352;28;19932;-64
2022/10/31 03:57:15;;;;;;;;;;;;;;;-1.03;83.28;98021.50;5083728;28;19932;-64
2022/10/31 03:59:44;;;;;;;;;;;;;;;-0.97;82.99;98035.81;5078740;28;19927;-64
2022/10/31 04:02:13;;;;;;;;;;;;;;;-1.01;82.92;98020.22;5085426;28;19927;-64
2022/10/31 04:04:39;;;;;;;;;;;;;;;-1.03;83.03;98029.53;5065015;28;19970;-64
2022/10/31 04:07:07;;;;;;;;;;;;;;;-1.03;83.26;98035.75;5084944;28;19928;-64
2022/10/31 04:09:37;;;;;;;;;;;;;;;-0.99;83.33;98054.84;5083541;28;19981;-64
2022/10/31 04:12:05;;;;;;;;;;;;;;;-1.03;83.08;98040.28;5083016;28;19928;-64
2022/10/31 04:14:47;;;;;;;;;;;;;;;-1.15;84.39;98049.22;5054258;28;20410;-64
2022/10/31 04:17:15;;;;;;;;;;;;;;;-1.21;84.59;98041.31;5085215;28;19928;-67
2022/10/31 04:19:42;;;;;;;;;;;;;;;-1.30;84.78;98062.34;5072709;28;19950;-64
2022/10/31 04:22:07;;;;;;;;;;;;;;;-1.33;84.96;98044.88;5054502;28;20482;-64
2022/10/31 04:24:33;;;;;;;;;;;;;;;-1.27;85.04;98044.94;5089637;28;20448;-64
2022/10/31 04:27:00;;;;;;;;;;;;;;;-1.26;84.57;98055.44;5091257;28;20395;-64
2022/10/31 04:29:28;;;;;;;;;;;;;;;-1.20;84.81;98053.69;5068896;28;20042;-64
2022/10/31 04:31:53;;;;;;;;;;;;;;;-1.17;84.45;98048.66;5087927;28;20141;-66
2022/10/31 04:34:19;;;;;;;;;;;;;;;-1.15;84.17;98056.44;5087017;28;19928;-64
2022/10/31 04:36:45;;;;;;;;;;;;;;;-1.17;84.05;98062.06;5071885;28;19951;-65
2022/10/31 04:39:15;;;;;;;;;;;;;;;-1.16;84.27;98063.69;5087197;28;20298;-66
2022/10/31 04:41:47;;;;;;;;;;;;;;;-1.10;84.39;98077.19;5072950;28;19928;-64
2022/10/31 04:44:15;;;;;;;;;;;;;;;-1.05;83.77;98063.84;5090692;28;20322;-66
2022/10/31 04:46:41;;;;;;;;;;;;;;;-1.05;83.36;98088.81;5102823;28;20319;-64
2022/10/31 04:49:08;;;;;;;;;;;;;;;-1.03;83.11;98084.03;5087490;28;19935;-66
2022/10/31 04:51:34;;;;;;;;;;;;;;;-1.03;82.83;98081.34;5083926;28;20399;-66
2022/10/31 04:54:00;;;;;;;;;;;;;;;-1.00;82.85;98082.75;5088639;28;19928;-66
2022/10/31 04:56:26;;;;;;;;;;;;;;;-0.98;82.98;98086.00;5086768;28;20339;-67
2022/10/31 04:58:57;;;;;;;;;;;;;;;-0.93;82.68;98083.41;5086739;28;20326;-67
2022/10/31 05:01:26;;;;;;;;;;;;;;;-0.89;82.91;98081.06;5069310;28;20124;-67
2022/10/31 05:03:52;;;;;;;;;;;;;;;-0.87;82.20;98084.31;5086650;28;19927;-67
2022/10/31 05:06:17;;;;;;;;;;;;;;;-0.88;81.73;98086.16;5086102;28;19942;-67
2022/10/31 05:08:43;;;;;;;;;;;;;;;-0.87;81.87;98089.66;5084186;28;20031;-67
2022/10/31 05:11:10;;;;;;;;;;;;;;;-0.87;82.07;98092.34;5083589;28;19927;-67
2022/10/31 05:13:37;;;;;;;;;;;;;;;-0.84;82.33;98091.06;5068417;28;20453;-67
2022/10/31 05:16:09;;;;;;;;;;;;;;;-0.82;82.17;98095.13;5088784;28;19960;-67
2022/10/31 05:18:54;;;;;;;;;;;;;;;-0.81;81.60;98112.03;5087044;28;20020;-65
2022/10/31 05:21:43;;;;;;;;;;;;;;;-0.80;81.66;98111.00;5088549;28;20410;-65
2022/10/31 05:24:11;;;;;;;;;;;;;;;-0.70;81.80;98115.72;5089578;28;19928;-65
2022/10/31 05:26:39;;;;;;;;;;;;;;;-0.60;81.18;98116.69;5067223;28;20077;-65
2022/10/31 05:29:04;;;;;;;;;;;;;;;-0.62;81.00;98132.25;5074477;28;20381;-65
2022/10/31 05:31:30;;;;;;;;;;;;;;;-0.64;80.98;98120.94;5103900;28;20260;-67
2022/10/31 05:33:58;;;;;;;;;;;;;;;-0.62;81.22;98132.25;5085714;28;19928;-65
2022/10/31 05:36:42;;;;;;;;;;;;;;;-0.60;81.01;98140.88;5104328;28;20573;-65
2022/10/31 05:39:11;;;;;;;;;;;;;;;-0.59;80.66;98145.16;5069411;28;19969;-65
2022/10/31 05:41:42;;;;;;;;;;;;;;;-0.53;80.70;98139.91;5087388;28;19934;-64
2022/10/31 05:44:20;;;;;;;;;;;;;;;-0.55;80.31;98153.56;5089208;28;19935;-67
2022/10/31 05:47:09;;;;;;;;;;;;;;;-0.47;80.52;98169.28;5102914;28;19978;-67
2022/10/31 05:49:55;;;;;;;;;;;;;;;-0.36;79.79;98170.28;5099113;28;20046;-67
2022/10/31 05:52:41;;;;;;;;;;;;;;;-0.37;79.62;98160.59;5100613;28;20398;-67
2022/10/31 05:55:26;;;;;;;;;;;;;;;-0.33;79.90;98174.31;5106842;28;20038;-67
2022/10/31 05:58:04;;;;;;;;;;;;;;;-0.32;79.31;98181.31;5105956;28;20292;-67
2022/10/31 06:00:30;;;;;;;;;;;;;;;-0.22;79.18;98165.38;5103186;28;20027;-65
2022/10/31 06:03:06;;;;;;;;;;;;;;;-0.19;78.75;98172.16;5083352;28;19942;-65
2022/10/31 06:05:42;;;;;;;;;;;;;;;-0.15;79.28;98198.28;5058232;28;19975;-64
2022/10/31 06:08:08;;;;;;;;;;;;;;;-0.10;79.18;98199.44;5083421;28;19935;-67
2022/10/31 06:10:35;;;;;;;;;;;;;;;-0.08;79.09;98190.06;5099370;28;20357;-67
2022/10/31 06:13:01;;;;;;;;;;;;;;;-0.07;78.96;98210.50;5099120;28;19928;-65
2022/10/31 06:15:37;;;;;;;;;;;;;;;0.01;79.32;98221.91;5085967;28;19928;-65
2022/10/31 06:18:06;;;;;;;;;;;;;;;0.06;79.16;98219.28;5073248;28;19928;-65
2022/10/31 06:20:35;;;;;;;;;;;;;;;0.05;79.28;98223.88;5098305;28;19944;-66
2022/10/31 06:23:04;;;;;;;;;;;;;;;0.03;79.27;98225.16;5083779;28;19931;-65
2022/10/31 06:25:32;;;;;;;;;;;;;;;0.06;79.56;98227.34;5085661;28;19934;-64
2022/10/31 06:27:58;;;;;;;;;;;;;;;0.11;79.51;98239.00;5102711;28;20429;-65
2022/10/31 06:30:33;;;;;;;;;;;;;;;0.12;79.77;98248.69;5105755;28;19927;-65
2022/10/31 06:33:03;;;;;;;;;;;;;;;0.18;80.00;98252.28;5088597;28;19927;-65
2022/10/31 06:35:29;;;;;;;;;;;;;;;0.23;79.83;98263.09;5105143;28;20432;-65
2022/10/31 06:37:56;;;;;;;;;;;;;;;0.31;79.96;98272.63;5103925;28;21726;-65
2022/10/31 06:40:41;;;;;;;;;;;;;;;0.36;79.88;98285.34;5070995;28;19928;-65
2022/10/31 06:43:24;;;;;;;;;;;;;;;0.42;79.72;98298.63;5086623;28;20497;-65
2022/10/31 06:46:03;;;;;;;;;;;;;;;0.48;79.41;98296.84;5068071;28;19939;-65
2022/10/31 06:48:45;;;;;;;;;;;;;;;0.52;79.24;98291.78;5086410;28;20314;-65
2022/10/31 06:51:33;;;;;;;;;;;;;;;0.58;79.11;98287.31;5079601;28;20065;-66
2022/10/31 06:53:59;;;;;;;;;;;;;;;0.64;78.87;98294.38;5075865;28;20023;-65
2022/10/31 06:56:27;;;;;;;;;;;;;;;0.72;78.38;98296.66;5101649;28;19934;-65
2022/10/31 06:58:55;;;;;;;;;;;;;;;0.79;78.20;98309.97;5087677;28;19939;-65
2022/10/31 07:01:42;;;;;;;;;;;;;;;0.84;78.31;98305.44;5096206;28;20332;-65
2022/10/31 07:04:09;;;;;;;;;;;;;;;0.94;78.01;98315.56;5103891;28;20310;-65
2022/10/31 07:06:35;;;;;;;;;;;;;;;1.04;78.08;98314.88;5102848;28;19976;-65
2022/10/31 07:09:00;;;;;;;;;;;;;;;1.10;77.56;98313.88;5107253;28;20353;-66
2022/10/31 07:11:28;;;;;;;;;;;;;;;1.11;77.38;98315.50;5086739;28;20299;-67
2022/10/31 07:13:56;;;;;;;;;;;;;;;1.18;77.27;98331.47;5083679;28;19967;-68
2022/10/31 07:16:23;;;;;;;;;;;;;;;1.21;77.28;98338.25;5086503;28;19928;-65
2022/10/31 07:18:49;;;;;;;;;;;;;;;1.18;77.37;98347.63;5086201;28;19928;-65
2022/10/31 07:21:16;;;;;;;;;;;;;;;1.17;77.67;98354.09;5054384;28;20429;-65
2022/10/31 07:23:41;;;;;;;;;;;;;;;1.15;77.88;98364.28;5095420;28;19927;-65
2022/10/31 07:26:27;;;;;;;;;;;;;;;1.15;78.16;98369.66;5097123;28;19927;-65
2022/10/31 07:28:55;;;;;;;;;;;;;;;1.13;78.31;98377.19;5105370;28;19928;-64
2022/10/31 07:31:24;;;;;;;;;;;;;;;1.10;78.27;98397.34;5105423;28;19927;-65
2022/10/31 07:33:52;;;;;;;;;;;;;;;1.04;78.07;98401.03;5078505;28;19970;-65
2022/10/31 07:36:27;;;;;;;;;;;;;;;1.07;78.32;98380.84;5086290;28;19942;-65
2022/10/31 07:38:58;;;;;;;;;;;;;;;1.06;77.96;98403.44;5092134;28;19927;-64
2022/10/31 07:41:24;;;;;;;;;;;;;;;1.12;77.93;98405.97;5103607;28;20330;-65
2022/10/31 07:43:51;;;;;;;;;;;;;;;1.21;77.45;98402.88;4746317;28;10000287;-65
2022/10/31 07:46:18;;;;;;;;;;;;;;;1.25;76.75;98421.00;5086341;28;20357;-65
2022/10/31 07:49:02;;;;;;;;;;;;;;;1.31;76.24;98442.59;5091715;28;19938;-65
2022/10/31 07:51:46;;;;;;;;;;;;;;;1.34;75.88;98452.88;5080423;28;19959;-65
2022/10/31 07:54:32;;;;;;;;;;;;;;;1.38;75.54;98454.00;5092788;28;19928;-67
2022/10/31 07:56:58;;;;;;;;;;;;;;;1.53;75.34;98438.06;5082973;28;20292;-67
2022/10/31 07:59:25;;;;;;;;;;;;;;;1.81;74.22;98451.63;5086186;28;20447;-67
2022/10/31 08:01:53;;;;;;;;;;;;;;;2.22;73.17;98464.78;5094175;28;19928;-67
2022/10/31 08:04:28;;;;;;;;;;;;;;;2.67;71.01;98470.91;5084296;28;19928;-65
2022/10/31 08:07:12;;;;;;;;;;;;;;;2.99;69.46;98467.41;5099544;28;19973;-67
2022/10/31 08:09:43;;;;;;;;;;;;;;;2.97;69.08;98481.19;5089936;28;20367;-67
2022/10/31 08:12:18;;;;;;;;;;;;;;;2.92;69.26;98500.03;5088642;28;19928;-67
2022/10/31 08:14:44;;;;;;;;;;;;;;;2.84;69.55;98485.09;5081668;28;19928;-67
2022/10/31 08:17:11;;;;;;;;;;;;;;;2.52;70.85;98490.47;5085978;28;19957;-67
2022/10/31 08:19:47;;;;;;;;;;;;;;;2.29;72.73;98502.38;5067621;28;19938;-66
2022/10/31 08:22:15;;;;;;;;;;;;;;;2.09;73.69;98507.25;5086653;28;20340;-67
2022/10/31 08:24:40;;;;;;;;;;;;;;;2.08;74.52;98520.97;5090120;28;19971;-67
2022/10/31 08:27:06;;;;;;;;;;;;;;;2.30;74.91;98520.19;5086823;28;19928;-67
2022/10/31 08:29:32;;;;;;;;;;;;;;;2.59;74.39;98514.56;5087552;28;19943;-67
2022/10/31 08:31:58;;;;;;;;;;;;;;;2.43;72.73;98513.56;5085064;28;20711;-67
2022/10/31 08:34:55;;;;;;;;;;;;;;;2.13;74.01;98534.53;5092031;28;19928;-67
2022/10/31 08:37:52;;;;;;;;;;;;;;;2.04;74.94;98531.47;5094133;28;20382;-67
2022/10/31 08:40:18;;;;;;;;;;;;;;;2.10;74.63;98529.63;5076127;28;20480;-68
2022/10/31 08:42:43;;;;;;;;;;;;;;;2.19;73.52;98538.91;5098132;28;19927;-67
2022/10/31 08:45:11;;;;;;;;;;;;;;;2.29;72.96;98554.41;5088341;28;20338;-67
2022/10/31 08:47:37;;;;;;;;;;;;;;;2.38;72.20;98554.78;5086439;28;19928;-67
2022/10/31 08:50:05;;;;;;;;;;;;;;;2.40;71.28;98563.44;5086507;28;19955;-64
2022/10/31 08:52:31;;;;;;;;;;;;;;;2.28;71.02;98558.19;5072347;28;19928;-65
2022/10/31 08:55:00;;;;;;;;;;;;;;;2.16;70.93;98566.41;5067747;28;20347;-65
2022/10/31 08:57:46;;;;;;;;;;;;;;;2.15;70.92;98574.72;5105588;28;19928;-64
2022/10/31 09:00:13;;;;;;;;;;;;;;;2.13;69.89;98572.28;5092935;28;20416;-64
2022/10/31 09:03:13;;;;;;;;;;;;;;;2.19;69.69;98567.78;5090329;28;20568;-64
2022/10/31 09:05:40;;;;;;;;;;;;;;;2.28;69.00;98576.25;5077816;28;19928;-65
2022/10/31 09:08:10;;;;;;;;;;;;;;;2.35;68.28;98583.09;5063891;28;20673;-64
2022/10/31 09:10:36;;;;;;;;;;;;;;;2.44;67.83;98585.34;5075550;28;19932;-65
2022/10/31 09:13:06;;;;;;;;;;;;;;;2.47;67.05;98584.84;5088081;28;19928;-65
2022/10/31 09:16:04;;;;;;;;;;;;;;;2.36;65.64;98581.22;5089878;28;19928;-64
2022/10/31 09:18:31;;;;;;;;;;;;;;;2.26;66.04;98582.72;5086707;28;19928;-64
2022/10/31 09:20:59;;;;;;;;;;;;;;;2.22;66.03;98581.56;5069372;28;19928;-65
2022/10/31 09:23:27;;;;;;;;;;;;;;;2.17;66.31;98594.16;5087907;28;19928;-64
2022/10/31 09:25:53;;;;;;;;;;;;;;;2.13;66.54;98599.25;5087550;28;19928;-64
2022/10/31 09:28:40;;;;;;;;;;;;;;;2.15;66.96;98616.00;5076579;28;19934;-64
2022/10/31 09:31:12;;;;;;;;;;;;;;;2.25;67.01;98601.84;5090506;28;19928;-64
2022/10/31 09:33:56;;;;;;;;;;;;;;;2.25;66.56;98601.84;5093256;28;19978;-65
2022/10/31 09:36:45;;;;;;;;;;;;;;;2.22;66.05;98594.25;5085255;28;19954;-65
2022/10/31 09:39:16;;;;;;;;;;;;;;;2.24;66.67;98616.41;5086044;28;20288;-65
2022/10/31 09:41:57;;;;;;;;;;;;;;;2.26;66.43;98625.06;5087570;28;19935;-64
2022/10/31 09:44:28;;;;;;;;;;;;;;;2.26;65.94;98611.56;5069521;28;20401;-65
2022/10/31 09:46:59;;;;;;;;;;;;;;;2.33;65.04;98632.97;4717797;28;10000333;-64
2022/10/31 09:49:37;;;;;;;;;;;;;;;2.36;64.20;98640.56;5103559;28;19928;-67
2022/10/31 09:52:10;;;;;;;;;;;;;;;2.24;64.63;98654.97;5090609;28;20057;-67
2022/10/31 09:54:38;;;;;;;;;;;;;;;2.17;65.89;98665.13;5073898;28;19932;-66
2022/10/31 09:57:04;;;;;;;;;;;;;;;2.16;66.37;98666.19;5093420;28;20026;-67
2022/10/31 09:59:34;;;;;;;;;;;;;;;2.74;66.48;98668.59;5077372;28;19935;-67
2022/10/31 10:02:02;;;;;;;;;;;;;;;3.58;62.80;98672.97;5081846;28;20466;-67
2022/10/31 10:04:39;;;;;;;;;;;;;;;3.44;62.43;98684.22;5082603;28;19932;-67
2022/10/31 10:07:30;;;;;;;;;;;;;;;3.12;63.16;98669.56;5078300;28;19928;-66
2022/10/31 10:10:13;;;;;;;;;;;;;;;2.88;63.78;98679.81;5100550;28;19932;-64
2022/10/31 10:13:09;;;;;;;;;;;;;;;2.64;64.45;98704.34;5084180;28;19928;-65
2022/10/31 10:15:51;;;;;;;;;;;;;;;2.45;64.91;98693.03;5104443;28;19928;-64
2022/10/31 10:18:23;;;;;;;;;;;;;;;2.27;65.86;98707.63;5102967;28;19955;-64
2022/10/31 10:20:56;;;;;;;;;;;;;;;2.20;66.42;98710.47;5102314;28;20086;-64
2022/10/31 10:23:32;;;;;;;;;;;;;;;2.20;67.03;98698.88;5106774;28;20315;-64
2022/10/31 10:26:02;;;;;;;;;;;;;;;2.30;67.64;98720.59;5105410;28;20364;-64
2022/10/31 10:28:29;;;;;;;;;;;;;;;2.53;67.63;98713.38;5104544;28;19927;-64
2022/10/31 10:30:59;;;;;;;;;;;;;;;2.59;67.96;98735.88;5104619;28;19927;-64
2022/10/31 10:33:28;;;;;;;;;;;;;;;2.64;67.76;98738.63;5078055;28;20338;-64
2022/10/31 10:35:56;;;;;;;;;;;;;;;2.65;67.84;98732.16;5086664;28;20410;-64
2022/10/31 10:38:26;;;;;;;;;;;;;;;2.61;67.62;98739.94;5084143;28;19928;-64
2022/10/31 10:40:54;;;;;;;;;;;;;;;2.53;67.91;98743.88;5093951;28;19934;-64
2022/10/31 10:43:25;;;;;;;;;;;;;;;2.51;68.42;98735.22;5091922;28;19927;-64
2022/10/31 10:48:45;;;;;;;;;;;;;;;2.66;69.78;98750.00;5086453;28;19938;-64
2022/10/31 10:51:18;;;;;;;;;;;;;;;2.94;68.94;98745.53;5100752;28;20414;-64
2022/10/31 10:54:03;;;;;;;;;;;;;;;3.05;67.50;98749.16;5086286;28;19928;-64
2022/10/31 10:56:45;;;;;;;;;;;;;;;2.95;66.94;98733.66;5085134;28;19928;-64
2022/10/31 10:59:13;;;;;;;;;;;;;;;2.92;66.09;98742.25;5089337;28;19928;-64
2022/10/31 11:01:40;;;;;;;;;;;;;;;2.80;66.06;98745.03;5098670;28;20284;-64
2022/10/31 11:04:14;;;;;;;;;;;;;;;2.79;66.01;98736.16;5102404;28;19936;-64
2022/10/31 11:06:39;;;;;;;;;;;;;;;2.78;65.80;98734.50;5082587;28;19928;-64
2022/10/31 11:09:08;;;;;;;;;;;;;;;2.71;65.36;98743.84;5082303;28;20326;-64
2022/10/31 11:11:34;;;;;;;;;;;;;;;2.63;65.45;98737.00;5098413;28;20392;-64
2022/10/31 11:14:04;;;;;;;;;;;;;;;2.47;65.70;98731.38;5106206;28;19965;-64
2022/10/31 11:16:32;;;;;;;;;;;;;;;2.47;65.95;98717.91;5097443;28;19928;-64
2022/10/31 11:19:06;;;;;;;;;;;;;;;2.49;65.54;98741.91;5087561;28;19928;-65
2022/10/31 11:21:34;;;;;;;;;;;;;;;2.42;65.76;98734.03;5098189;28;20441;-64
2022/10/31 11:24:04;;;;;;;;;;;;;;;2.43;66.12;98742.91;5086955;28;19938;-66
2022/10/31 11:26:29;;;;;;;;;;;;;;;2.35;66.56;98761.16;5071048;28;19938;-64
2022/10/31 11:28:56;;;;;;;;;;;;;;;2.35;67.14;98761.16;5084792;28;20277;-64
2022/10/31 11:31:25;;;;;;;;;;;;;;;2.37;67.31;98745.53;5086815;28;19935;-64
2022/10/31 11:33:55;;;;;;;;;;;;;;;2.34;67.52;98756.00;5090603;28;19935;-66
2022/10/31 11:36:23;;;;;;;;;;;;;;;2.34;67.86;98742.50;5064977;28;19935;-66
2022/10/31 11:38:49;;;;;;;;;;;;;;;2.27;68.10;98745.38;5111710;28;19999;-64
2022/10/31 11:41:17;;;;;;;;;;;;;;;2.25;68.01;98747.50;5111399;28;19927;-66
2022/10/31 11:43:47;;;;;;;;;;;;;;;2.26;68.07;98765.31;5111087;28;19934;-64
2022/10/31 11:46:17;;;;;;;;;;;;;;;2.24;67.70;98770.94;5091673;28;20353;-64
2022/10/31 11:48:47;;;;;;;;;;;;;;;2.18;67.60;98768.41;5107076;28;19927;-64
2022/10/31 11:51:19;;;;;;;;;;;;;;;2.11;67.78;98769.41;5111365;28;19935;-64
2022/10/31 11:53:50;;;;;;;;;;;;;;;2.04;68.09;98792.19;5105022;28;20384;-64
2022/10/31 11:56:17;;;;;;;;;;;;;;;2.04;68.39;98778.72;5099230;28;19937;-64
2022/10/31 11:58:43;;;;;;;;;;;;;;;2.06;68.67;98787.38;5090486;28;20023;-65
2022/10/31 12:01:23;;;;;;;;;;;;;;;2.10;68.91;98793.91;5098677;28;20408;-64
2022/10/31 12:03:54;;;;;;;;;;;;;;;2.12;68.78;98776.44;5098204;28;20281;-67
2022/10/31 12:06:22;;;;;;;;;;;;;;;2.06;68.96;98784.69;5066361;28;19928;-66
2022/10/31 12:08:48;;;;;;;;;;;;;;;2.06;69.10;98779.28;5087015;28;19973;-66
2022/10/31 12:11:27;;;;;;;;;;;;;;;2.04;69.41;98782.25;5090843;28;19928;-66
2022/10/31 12:14:00;;;;;;;;;;;;;;;2.05;69.46;98775.78;5103826;28;20450;-66
2022/10/31 12:16:28;;;;;;;;;;;;;;;2.02;69.39;98786.22;5107722;28;20424;-66
2022/10/31 12:18:59;;;;;;;;;;;;;;;2.00;69.55;98796.44;5098562;28;19959;-66
2022/10/31 12:21:31;;;;;;;;;;;;;;;2.03;69.85;98791.41;5101817;28;19950;-66
2022/10/31 12:24:02;;;;;;;;;;;;;;;2.06;70.04;98776.59;5102325;28;19928;-66
2022/10/31 12:26:34;;;;;;;;;;;;;;;2.04;69.62;98784.09;5093257;28;19935;-66
2022/10/31 12:29:06;;;;;;;;;;;;;;;1.96;70.18;98783.47;5086259;28;19963;-66
2022/10/31 12:31:38;;;;;;;;;;;;;;;1.92;70.71;98795.78;4747875;27;9999814;-64
2022/10/31 12:34:16;;;;;;;;;;;;;;;1.96;71.28;98793.41;5100727;28;19928;-64
2022/10/31 12:36:48;;;;;;;;;;;;;;;1.94;71.85;98800.94;5088022;28;20395;-64
2022/10/31 12:39:25;;;;;;;;;;;;;;;1.93;72.77;98793.91;5095005;28;19947;-64
2022/10/31 12:41:53;;;;;;;;;;;;;;;1.95;73.21;98783.69;5083611;28;19928;-66
2022/10/31 12:44:30;;;;;;;;;;;;;;;1.94;73.66;98809.81;5083180;28;19960;-66
2022/10/31 12:47:02;;;;;;;;;;;;;;;1.92;73.89;98813.84;5083637;28;19959;-64
2022/10/31 12:49:38;;;;;;;;;;;;;;;1.89;74.11;98804.34;5086196;28;19943;-64
2022/10/31 12:52:10;;;;;;;;;;;;;;;1.88;74.32;98807.31;5083221;28;19935;-64
2022/10/31 12:54:55;;;;;;;;;;;;;;;1.84;74.76;98818.53;5065168;28;19932;-65
2022/10/31 12:57:24;;;;;;;;;;;;;;;1.88;74.83;98815.38;5085170;28;19928;-64
2022/10/31 12:59:51;;;;;;;;;;;;;;;1.88;74.91;98816.19;5103858;28;19928;-64
2022/10/31 13:02:20;;;;;;;;;;;;;;;1.86;75.04;98820.19;5085887;28;19927;-65
2022/10/31 13:04:50;;;;;;;;;;;;;;;1.85;75.08;98827.47;5094853;28;19935;-64
2022/10/31 13:07:19;;;;;;;;;;;;;;;1.81;75.39;98829.81;5090233;28;19932;-64
2022/10/31 13:09:48;;;;;;;;;;;;;;;1.79;75.54;98804.16;5107853;28;19935;-66
2022/10/31 13:12:16;;;;;;;;;;;;;;;1.81;75.36;98831.72;5074513;28;20337;-66
2022/10/31 13:14:44;;;;;;;;;;;;;;;1.82;75.40;98825.25;5085760;28;19928;-67